Terminal Aerodrome Forecast
Issued by NWS

Home | Current Version | Previous Version | Graphics & Text | Print | Product List | Glossary On
Versions: 1 2 3 4 5 6 7 8 9 10 11 12 13 14 15 16 17 18 19 20
246
FTUS43 KGRB 270520
TAFAUW
TAF
KAUW 270520Z 2706/2806 07005KT P6SM OVC250
     FM271500 08010G18KT P6SM OVC200
     FM272100 08014G20KT P6SM BKN100 OVC150
     FM280200 08009KT P6SM SCT040 OVC070=

USA.gov is the U.S. government's official web portal to all federal, state and local government web resources and services.